Terminal Aerodrome Forecast
Issued by NWS

Home | Current Version | Previous Version | Text Only | Print | Product List | Glossary On
Versions: 1 2 3 4 5 6 7 8 9 10 11 12 13 14 15 16 17 18 19 20 21 22 23 24 25 26
000
FTUS45 KGJT 020537
TAFRIL
TAF
KRIL 020537Z 0206/0306 00000KT P6SM VCSH SCT030 OVC050
     FM020700 VRB03KT P6SM -RA SCT025 OVC040
      TEMPO 0211/0215 5SM -RA BR BKN025
     FM030100 24014G22KT 2SM -RA BR BKN015 OVC025
     FM030400 27014G22KT 5SM -RA BR BKN015 OVC025=

USA.gov is the U.S. government's official web portal to all federal, state and local government web resources and services.